TimeCST,TemperatureF,Dew PointF,Humidity,Sea Level PressureIn,VisibilityMPH,Wind Direction,Wind SpeedMPH,Gust SpeedMPH,PrecipitationIn,Events,Conditions,WindDirDegrees,DateUTC
12:55 AM,45.9,40.1,80,30.27,10.0,North,8.1,-,N/A,,Partly Cloudy,360,2012-11-18 06:55:00
1:55 AM,46.9,39.6,76,30.27,10.0,NNE,5.8,-,N/A,,Clear,20,2012-11-18 07:55:00
2:55 AM,46.6,40.8,80,30.26,10.0,North,5.8,-,N/A,,Mostly Cloudy,10,2012-11-18 08:55:00
3:55 AM,45.7,38.8,77,30.26,10.0,NNE,5.8,-,N/A,,Clear,20,2012-11-18 09:55:00
4:55 AM,48.2,38.7,70,30.27,10.0,NE,8.1,-,N/A,,Overcast,40,2012-11-18 10:55:00
5:16 AM,48.2,39.2,71,30.27,10.0,NNE,9.2,-,N/A,,Overcast,30,2012-11-18 11:16:00
5:24 AM,48.2,39.2,71,30.28,10.0,NNE,9.2,-,N/A,,Overcast,30,2012-11-18 11:24:00
5:26 AM,48.2,37.4,66,30.28,10.0,NNE,8.1,-,N/A,,Overcast,30,2012-11-18 11:26:00
5:41 AM,48.2,37.4,66,30.27,10.0,NNE,9.2,-,N/A,,Mostly Cloudy,30,2012-11-18 11:41:00
5:48 AM,48.2,37.4,66,30.27,10.0,NNE,9.2,-,N/A,,Overcast,30,2012-11-18 11:48:00
5:55 AM,48.2,38.3,69,30.28,9.0,NNE,8.1,-,N/A,,Overcast,30,2012-11-18 11:55:00
6:07 AM,48.2,39.2,71,30.28,9.0,NE,8.1,-,N/A,,Overcast,40,2012-11-18 12:07:00
6:55 AM,48.2,38.7,70,30.29,8.0,NNE,8.1,-,N/A,,Mostly Cloudy,30,2012-11-18 12:55:00
7:55 AM,49.5,39.9,70,30.30,10.0,NE,9.2,-,N/A,,Mostly Cloudy,40,2012-11-18 13:55:00
8:55 AM,55.2,43.3,64,30.30,10.0,NE,12.7,-,N/A,,Scattered Clouds,50,2012-11-18 14:55:00
9:12 AM,55.4,44.6,67,30.30,10.0,ENE,9.2,-,N/A,Rain,Light Rain,70,2012-11-18 15:12:00
9:29 AM,57.2,44.6,63,30.30,10.0,ENE,12.7,-,N/A,,Clear,70,2012-11-18 15:29:00
9:55 AM,59.2,45.1,60,30.30,10.0,ENE,6.9,-,0.00,,Clear,70,2012-11-18 15:55:00
10:14 AM,60.8,46.4,59,30.30,10.0,NNE,4.6,-,N/A,,Light Drizzle,30,2012-11-18 16:14:00
10:24 AM,60.8,46.4,59,30.30,10.0,NE,4.6,-,N/A,,Clear,40,2012-11-18 16:24:00
10:25 AM,60.8,46.4,59,30.30,10.0,NE,4.6,-,N/A,,Light Drizzle,50,2012-11-18 16:25:00
10:42 AM,62.6,46.4,55,30.29,10.0,NNE,6.9,-,N/A,,Clear,30,2012-11-18 16:42:00
10:43 AM,62.6,46.4,55,30.29,10.0,Variable,6.9,-,N/A,Rain,Light Rain,0,2012-11-18 16:43:00
10:55 AM,63.9,46.6,53,30.29,10.0,North,6.9,-,0.00,,Clear,360,2012-11-18 16:55:00
11:06 AM,64.4,46.4,52,30.29,10.0,NNE,6.9,-,N/A,Rain,Light Rain,30,2012-11-18 17:06:00
11:18 AM,64.4,46.4,52,30.28,10.0,NNE,5.8,-,N/A,,Clear,30,2012-11-18 17:18:00
11:35 AM,66.2,46.4,49,30.27,10.0,Calm,Calm,-,N/A,,Light Drizzle,0,2012-11-18 17:35:00
11:47 AM,66.2,46.4,49,30.27,10.0,Variable,3.5,-,N/A,,Clear,0,2012-11-18 17:47:00
11:55 AM,66.7,46.9,49,30.27,10.0,ENE,5.8,-,0.00,,Clear,70,2012-11-18 17:55:00
11:58 AM,66.2,46.4,49,30.27,10.0,Calm,Calm,-,N/A,,Light Drizzle,0,2012-11-18 17:58:00
12:19 PM,66.2,50.0,56,30.25,10.0,South,8.1,-,N/A,,Clear,180,2012-11-18 18:19:00
12:55 PM,65.3,50.2,58,30.24,10.0,SSW,5.8,-,0.00,,Clear,210,2012-11-18 18:55:00
12:59 PM,66.2,50.0,56,30.24,10.0,SW,4.6,-,N/A,,Light Drizzle,220,2012-11-18 18:59:00
1:06 PM,66.2,50.0,56,30.24,10.0,SW,5.8,-,N/A,,Clear,230,2012-11-18 19:06:00
1:40 PM,64.4,50.0,59,30.23,10.0,South,5.8,-,N/A,,Light Drizzle,190,2012-11-18 19:40:00
1:55 PM,64.8,50.2,59,30.23,10.0,SSW,5.8,-,0.00,,Light Drizzle,210,2012-11-18 19:55:00
1:57 PM,64.4,50.0,59,30.23,10.0,SSW,4.6,-,N/A,,Clear,210,2012-11-18 19:57:00
2:27 PM,64.4,51.8,64,30.23,10.0,South,5.8,-,N/A,,Light Drizzle,180,2012-11-18 20:27:00
2:55 PM,65.1,51.3,61,30.23,10.0,South,3.5,-,0.00,Rain,Light Rain,170,2012-11-18 20:55:00
3:27 PM,66.2,51.8,60,30.22,10.0,South,3.5,-,N/A,,Clear,170,2012-11-18 21:27:00
3:29 PM,66.2,51.8,60,30.22,10.0,Calm,Calm,-,N/A,Rain,Light Rain,0,2012-11-18 21:29:00
3:30 PM,66.2,51.8,60,30.22,10.0,Calm,Calm,-,N/A,,Clear,0,2012-11-18 21:30:00
3:35 PM,66.2,51.8,60,30.22,10.0,Calm,Calm,-,N/A,,Light Drizzle,0,2012-11-18 21:35:00
3:55 PM,65.3,51.8,62,30.22,10.0,SSW,3.5,-,0.00,Rain,Light Rain,200,2012-11-18 21:55:00
3:58 PM,64.4,51.8,64,30.22,10.0,Calm,Calm,-,N/A,,Clear,0,2012-11-18 21:58:00
4:09 PM,64.4,51.8,64,30.22,10.0,Calm,Calm,-,N/A,Rain,Light Rain,0,2012-11-18 22:09:00
4:29 PM,64.4,51.8,64,30.22,10.0,Variable,3.5,-,N/A,,Clear,0,2012-11-18 22:29:00
4:31 PM,64.4,50.0,59,30.22,10.0,NE,5.8,-,N/A,,Light Drizzle,50,2012-11-18 22:31:00
4:32 PM,64.4,50.0,59,30.23,10.0,NE,4.6,-,N/A,,Clear,50,2012-11-18 22:32:00
4:43 PM,62.6,50.0,63,30.23,10.0,NNE,4.6,-,N/A,Rain,Light Rain,20,2012-11-18 22:43:00
4:55 PM,63.0,49.5,61,30.24,10.0,NNE,3.5,-,0.00,,Light Drizzle,30,2012-11-18 22:55:00
5:07 PM,62.6,50.0,63,30.24,10.0,NNE,4.6,-,N/A,,Clear,30,2012-11-18 23:07:00
5:55 PM,56.5,49.8,78,30.25,10.0,NNE,4.6,-,0.00,,Clear,30,2012-11-18 23:55:00
6:55 PM,52.7,48.7,86,30.26,10.0,North,5.8,-,N/A,,Clear,360,2012-11-19 00:55:00
7:55 PM,51.6,48.0,87,30.27,10.0,North,5.8,-,N/A,,Clear,360,2012-11-19 01:55:00
8:55 PM,50.0,46.9,89,30.27,10.0,North,8.1,-,N/A,,Clear,360,2012-11-19 02:55:00
9:55 PM,50.2,46.8,88,30.27,10.0,North,9.2,-,N/A,,Clear,360,2012-11-19 03:55:00
10:55 PM,50.5,46.4,86,30.27,10.0,North,9.2,-,N/A,,Clear,360,2012-11-19 04:55:00
11:55 PM,50.2,46.0,86,30.26,10.0,North,9.2,-,N/A,,Clear,360,2012-11-19 05:55:00